createdAt,value
2023-04-10T00:00:32.774Z,99.90
2023-04-10T00:03:03.346Z,99.90
2023-04-10T00:05:30.673Z,99.90
2023-04-10T00:07:57.223Z,99.90
2023-04-10T00:10:26.209Z,99.90
2023-04-10T00:12:53.824Z,99.90
2023-04-10T00:15:20.640Z,99.90
2023-04-10T00:17:47.255Z,99.90
2023-04-10T00:20:13.836Z,99.90
2023-04-10T00:22:41.804Z,99.90
2023-04-10T00:25:08.693Z,99.90
2023-04-10T00:27:35.333Z,99.90
2023-04-10T00:30:02.588Z,99.90
2023-04-10T00:32:29.259Z,99.90
2023-04-10T00:34:55.882Z,99.90
2023-04-10T00:37:22.604Z,99.90
2023-04-10T00:39:49.159Z,99.90
2023-04-10T00:42:15.696Z,99.90
2023-04-10T00:44:42.335Z,99.90
2023-04-10T00:47:08.904Z,99.90
2023-04-10T00:49:35.845Z,99.90
2023-04-10T00:52:02.478Z,99.90
2023-04-10T00:54:30.333Z,99.90
2023-04-10T00:56:58.446Z,99.90
2023-04-10T00:59:25.264Z,99.90
2023-04-10T01:01:51.954Z,99.90
2023-04-10T01:04:18.898Z,99.90
2023-04-10T01:06:52.904Z,99.90
2023-04-10T01:09:44.399Z,99.90
2023-04-10T01:12:38.160Z,99.90
2023-04-10T01:15:04.725Z,99.90
2023-04-10T01:17:52.370Z,99.90
2023-04-10T01:20:27.486Z,99.90
2023-04-10T01:23:25.365Z,99.90
2023-04-10T01:26:05.521Z,99.90
2023-04-10T01:29:04.131Z,99.90
2023-04-10T01:31:42.443Z,99.90
2023-04-10T01:34:15.500Z,99.90
2023-04-10T01:37:00.487Z,99.90
2023-04-10T01:39:28.466Z,99.90
2023-04-10T01:41:57.804Z,99.90
2023-04-10T01:44:27.763Z,99.90
2023-04-10T01:46:56.268Z,99.90
2023-04-10T01:49:26.174Z,99.90
2023-04-10T01:51:55.545Z,99.90
2023-04-10T01:54:22.596Z,99.90
2023-04-10T01:56:49.192Z,99.90
2023-04-10T01:59:16.104Z,99.90
2023-04-10T02:01:42.711Z,99.90
2023-04-10T02:04:09.469Z,99.90
2023-04-10T02:07:03.614Z,99.90
2023-04-10T02:09:55.862Z,99.90
2023-04-10T02:12:27.398Z,99.90
2023-04-10T02:14:56.101Z,99.90
2023-04-10T02:17:28.724Z,99.90
2023-04-10T02:19:57.065Z,99.90
2023-04-10T02:22:25.645Z,99.90
2023-04-10T02:24:55.487Z,99.90
2023-04-10T02:27:36.316Z,99.90
2023-04-10T02:30:04.296Z,99.90
2023-04-10T02:32:33.295Z,99.90
2023-04-10T02:35:00.186Z,99.90
2023-04-10T02:37:26.785Z,99.90
2023-04-10T02:39:54.848Z,99.90
2023-04-10T02:42:21.480Z,99.90
2023-04-10T02:44:48.403Z,99.90
2023-04-10T02:47:16.104Z,99.90
2023-04-10T02:49:42.673Z,99.90
2023-04-10T02:52:09.345Z,99.90
2023-04-10T02:54:36.053Z,99.90
2023-04-10T02:57:02.907Z,99.90
2023-04-10T02:59:29.549Z,99.90
2023-04-10T03:01:56.298Z,99.90
2023-04-10T03:04:22.988Z,99.90
2023-04-10T03:06:49.654Z,99.90
2023-04-10T03:09:16.908Z,99.90
2023-04-10T03:11:43.522Z,99.90
2023-04-10T03:14:10.138Z,99.90
2023-04-10T03:16:36.950Z,99.90
2023-04-10T03:19:03.836Z,99.90
2023-04-10T03:21:30.475Z,99.90
2023-04-10T03:23:57.017Z,99.90
2023-04-10T03:26:23.961Z,99.90
2023-04-10T03:28:50.900Z,99.90
2023-04-10T03:31:17.665Z,99.90
2023-04-10T03:33:44.405Z,99.90
2023-04-10T03:36:11.416Z,99.90
2023-04-10T03:38:38.119Z,99.90
2023-04-10T03:41:04.997Z,99.90
2023-04-10T03:43:31.666Z,99.90
2023-04-10T03:45:58.584Z,99.90
2023-04-10T03:48:28.275Z,99.90
2023-04-10T03:50:55.403Z,99.90
2023-04-10T03:53:22.112Z,99.90
2023-04-10T03:55:48.661Z,99.90
2023-04-10T03:58:15.284Z,99.90
2023-04-10T04:00:42.121Z,99.90
2023-04-10T04:03:08.912Z,99.90
2023-04-10T04:05:35.718Z,99.90
2023-04-10T04:08:04.672Z,99.90
2023-04-10T04:10:31.311Z,99.90
2023-04-10T04:12:58.005Z,99.90
2023-04-10T04:15:24.787Z,99.90
2023-04-10T04:17:51.806Z,99.90
2023-04-10T04:20:18.440Z,99.90
2023-04-10T04:22:46.185Z,99.90
2023-04-10T04:25:12.852Z,99.90
2023-04-10T04:27:39.463Z,99.90
2023-04-10T04:30:06.897Z,99.90
2023-04-10T04:32:33.501Z,99.90
2023-04-10T04:35:00.090Z,99.90
2023-04-10T04:37:26.730Z,99.90
2023-04-10T04:39:53.275Z,99.90
2023-04-10T04:42:19.873Z,99.90
2023-04-10T04:44:46.503Z,99.90
2023-04-10T04:47:13.064Z,99.90
2023-04-10T04:49:39.593Z,99.90
2023-04-10T04:52:06.212Z,99.90
2023-04-10T04:54:32.760Z,99.90
2023-04-10T04:56:59.312Z,99.90
2023-04-10T04:59:25.854Z,99.90
2023-04-10T05:01:52.731Z,99.90
2023-04-10T05:04:20.646Z,99.90
2023-04-10T05:06:47.286Z,99.90
2023-04-10T05:09:13.867Z,99.90
2023-04-10T05:11:40.947Z,99.90
2023-04-10T05:14:10.182Z,99.90
2023-04-10T05:16:36.751Z,99.90
2023-04-10T05:19:03.400Z,99.90
2023-04-10T05:21:31.146Z,99.90
2023-04-10T05:23:57.725Z,99.90
2023-04-10T05:26:24.274Z,99.90
2023-04-10T05:28:51.014Z,99.90
2023-04-10T05:31:17.606Z,99.90
2023-04-10T05:33:44.179Z,99.90
2023-04-10T05:36:11.137Z,99.90
2023-04-10T05:38:37.817Z,99.90
2023-04-10T05:41:04.435Z,99.90
2023-04-10T05:43:31.028Z,99.90
2023-04-10T05:45:57.664Z,99.90
2023-04-10T05:48:26.060Z,99.90
2023-04-10T05:50:52.840Z,99.90
2023-04-10T05:53:21.045Z,99.90
2023-04-10T05:55:54.474Z,99.90
2023-04-10T05:58:21.110Z,99.90
2023-04-10T06:00:47.771Z,99.90
2023-04-10T06:03:14.629Z,98.80
2023-04-10T06:05:41.662Z,98.30
2023-04-10T06:08:08.273Z,97.60
2023-04-10T06:10:34.845Z,96.80
2023-04-10T06:13:01.412Z,95.70
2023-04-10T06:15:28.512Z,93.20
2023-04-10T06:18:01.295Z,92.10
2023-04-10T06:20:28.025Z,87.70
2023-04-10T06:22:54.577Z,85.80
2023-04-10T06:25:21.151Z,86.80
2023-04-10T06:27:47.726Z,91.10
2023-04-10T06:30:14.306Z,93.30
2023-04-10T06:32:41.647Z,93.70
2023-04-10T06:35:08.706Z,92.40
2023-04-10T06:37:35.445Z,91.00
2023-04-10T06:40:12.941Z,90.70
2023-04-10T06:42:39.566Z,90.80
2023-04-10T06:45:06.705Z,90.60
2023-04-10T06:47:33.501Z,89.40
2023-04-10T06:50:00.213Z,87.00
2023-04-10T06:52:27.038Z,82.30
2023-04-10T06:54:53.674Z,75.50
2023-04-10T06:57:23.344Z,74.60
2023-04-10T06:59:49.945Z,72.20
2023-04-10T07:02:16.588Z,70.60
2023-04-10T07:04:43.188Z,71.60
2023-04-10T07:07:12.402Z,66.60
2023-04-10T07:09:39.570Z,64.70
2023-04-10T07:12:06.229Z,61.40
2023-04-10T07:14:34.884Z,59.80
2023-04-10T07:17:01.873Z,58.60
2023-04-10T07:19:28.807Z,58.60
2023-04-10T07:21:55.485Z,57.30
2023-04-10T07:24:22.189Z,59.80
2023-04-10T07:26:48.758Z,57.50
2023-04-10T07:29:15.819Z,56.80
2023-04-10T07:31:42.574Z,57.50
2023-04-10T07:34:11.490Z,55.90
2023-04-10T07:36:38.370Z,56.90
2023-04-10T07:39:04.975Z,55.80
2023-04-10T07:41:31.692Z,56.40
2023-04-10T07:43:58.236Z,55.90
2023-04-10T07:46:24.834Z,54.60
2023-04-10T07:48:52.135Z,55.80
2023-04-10T07:51:18.938Z,53.40
2023-04-10T07:53:45.513Z,51.60
2023-04-10T07:56:19.910Z,51.20
2023-04-10T07:58:47.101Z,50.00
2023-04-10T08:01:14.632Z,48.00
2023-04-10T08:03:43.174Z,42.10
2023-04-10T08:06:11.254Z,40.60
2023-04-10T08:08:39.812Z,43.70
2023-04-10T08:11:08.506Z,46.10
2023-04-10T08:13:35.135Z,46.70
2023-04-10T08:16:01.946Z,47.30
2023-04-10T08:18:28.477Z,46.10
2023-04-10T08:20:55.135Z,45.40
2023-04-10T08:23:21.710Z,43.90
2023-04-10T08:25:48.425Z,42.40
2023-04-10T08:28:15.344Z,40.90
2023-04-10T08:30:41.938Z,39.30
2023-04-10T08:33:08.517Z,36.50
2023-04-10T08:35:35.112Z,34.50
2023-04-10T08:38:12.620Z,33.30
2023-04-10T08:40:40.727Z,32.80
2023-04-10T08:43:07.291Z,33.50
2023-04-10T08:45:34.096Z,35.50
2023-04-10T08:48:05.291Z,35.00
2023-04-10T08:50:36.055Z,34.50
2023-04-10T08:53:08.990Z,34.70
2023-04-10T08:55:38.322Z,32.80
2023-04-10T08:58:05.260Z,31.90
2023-04-10T09:00:34.836Z,32.60
2023-04-10T09:03:04.838Z,35.20
2023-04-10T09:05:31.975Z,36.60
2023-04-10T09:07:58.617Z,37.40
2023-04-10T09:10:25.251Z,37.50
2023-04-10T09:12:52.362Z,37.50
2023-04-10T09:15:19.059Z,37.50
2023-04-10T09:18:00.812Z,36.50
2023-04-10T09:20:29.710Z,35.90
2023-04-10T09:22:56.727Z,34.80
2023-04-10T09:25:38.957Z,34.40
2023-04-10T09:28:07.380Z,34.00
2023-04-10T09:30:39.910Z,34.10
2023-04-10T09:33:23.416Z,34.70
2023-04-10T09:35:50.725Z,33.60
2023-04-10T09:38:19.093Z,33.00
2023-04-10T09:40:46.953Z,34.40
2023-04-10T09:43:40.083Z,34.60
2023-04-10T09:46:09.659Z,34.70
2023-04-10T09:48:36.216Z,36.30
2023-04-10T09:51:03.139Z,35.40
2023-04-10T09:53:29.827Z,34.80
2023-04-10T09:55:56.909Z,34.20
2023-04-10T09:58:26.345Z,34.20
2023-04-10T10:00:53.531Z,34.90
2023-04-10T10:03:24.052Z,35.50
2023-04-10T10:05:51.716Z,35.70
2023-04-10T10:08:18.791Z,37.00
2023-04-10T10:10:57.260Z,36.70
2023-04-10T10:13:48.405Z,37.00
2023-04-10T10:16:38.479Z,34.90
2023-04-10T10:19:27.114Z,34.00
2023-04-10T10:21:55.393Z,31.50
2023-04-10T10:24:23.704Z,32.60
2023-04-10T10:26:51.804Z,33.20
2023-04-10T10:29:19.579Z,33.30
2023-04-10T10:31:47.614Z,35.20
2023-04-10T10:34:16.431Z,35.40
2023-04-10T10:36:43.236Z,36.90
2023-04-10T10:39:25.675Z,34.80
2023-04-10T10:42:07.895Z,33.20
2023-04-10T10:44:42.847Z,32.10
2023-04-10T10:47:28.885Z,32.00
2023-04-10T10:49:58.215Z,31.90
2023-04-10T10:52:45.844Z,32.70
2023-04-10T10:55:31.244Z,33.10
2023-04-10T10:58:02.428Z,33.70
2023-04-10T11:00:51.172Z,34.90
2023-04-10T11:03:17.913Z,34.90
2023-04-10T11:06:21.275Z,33.30
2023-04-10T11:08:49.611Z,32.00
2023-04-10T11:11:24.421Z,31.70
2023-04-10T11:13:56.137Z,31.40
2023-04-10T11:16:41.729Z,30.60
2023-04-10T11:19:14.948Z,31.10
2023-04-10T11:22:07.305Z,31.20
2023-04-10T11:24:57.516Z,31.50
2023-04-10T11:27:54.396Z,31.30
2023-04-10T11:30:35.292Z,30.90
2023-04-10T11:33:03.804Z,31.30
2023-04-10T11:35:31.713Z,32.50
2023-04-10T11:38:14.439Z,32.10
2023-04-10T11:40:58.421Z,31.80
2023-04-10T11:43:25.335Z,30.30
2023-04-10T11:46:03.026Z,30.20
2023-04-10T11:48:30.225Z,30.40
2023-04-10T11:50:57.508Z,31.20
2023-04-10T11:53:24.467Z,30.80
2023-04-10T11:55:51.736Z,31.10
2023-04-10T11:58:22.997Z,30.80
2023-04-10T12:01:04.802Z,31.00
2023-04-10T12:03:39.752Z,32.20
2023-04-10T12:06:08.474Z,31.90
2023-04-10T12:08:40.572Z,32.20
2023-04-10T12:11:09.412Z,30.60
2023-04-10T12:13:36.981Z,30.60
2023-04-10T12:16:06.772Z,30.80
2023-04-10T12:18:33.918Z,31.10
2023-04-10T12:21:01.413Z,29.90
2023-04-10T12:23:29.674Z,30.80
2023-04-10T12:26:15.187Z,30.90
2023-04-10T12:28:50.336Z,30.80
2023-04-10T12:31:17.255Z,30.50
2023-04-10T12:33:47.058Z,32.50
2023-04-10T12:36:24.230Z,34.00
2023-04-10T12:38:51.055Z,33.60
2023-04-10T12:41:31.490Z,33.00
2023-04-10T12:44:12.347Z,31.20
2023-04-10T12:46:40.566Z,31.20
2023-04-10T12:49:13.189Z,30.60
2023-04-10T12:51:46.387Z,29.90
2023-04-10T12:54:27.038Z,28.70
2023-04-10T12:56:54.463Z,29.70
2023-04-10T12:59:22.488Z,29.30
2023-04-10T13:01:49.591Z,28.90
2023-04-10T13:04:16.698Z,28.60
2023-04-10T13:06:46.661Z,28.10
2023-04-10T13:09:14.144Z,29.00
2023-04-10T13:11:41.881Z,28.20
2023-04-10T13:14:09.484Z,28.70
2023-04-10T13:16:36.186Z,29.10
2023-04-10T13:19:02.897Z,29.60
2023-04-10T13:21:30.017Z,30.10
2023-04-10T13:23:56.682Z,30.50
2023-04-10T13:26:24.240Z,31.30
2023-04-10T13:28:50.870Z,31.20
2023-04-10T13:31:17.560Z,31.90
2023-04-10T13:33:47.738Z,32.30
2023-04-10T13:36:16.332Z,31.50
2023-04-10T13:38:43.029Z,31.50
2023-04-10T13:41:09.762Z,32.10
2023-04-10T13:43:37.402Z,31.50
2023-04-10T13:46:04.052Z,31.60
2023-04-10T13:48:40.037Z,31.00
2023-04-10T13:51:08.264Z,31.30
2023-04-10T13:53:35.065Z,31.00
2023-04-10T13:56:01.733Z,31.30
2023-04-10T13:58:31.684Z,32.10
2023-04-10T14:00:58.448Z,31.30
2023-04-10T14:03:25.396Z,32.40
2023-04-10T14:05:52.800Z,32.70
2023-04-10T14:08:19.766Z,32.80
2023-04-10T14:10:50.658Z,33.20
2023-04-10T14:13:17.906Z,33.20
2023-04-10T14:15:44.839Z,34.40
2023-04-10T14:18:11.585Z,34.10
2023-04-10T14:20:38.923Z,34.50
2023-04-10T14:23:05.756Z,34.40
2023-04-10T14:25:32.325Z,33.90
2023-04-10T14:27:59.703Z,34.60
2023-04-10T14:30:30.782Z,34.60
2023-04-10T14:32:57.600Z,35.00
2023-04-10T14:35:24.302Z,35.20
2023-04-10T14:37:50.938Z,35.30
2023-04-10T14:40:17.526Z,35.30
2023-04-10T14:42:44.181Z,36.00
2023-04-10T14:45:10.959Z,36.60
2023-04-10T14:47:37.635Z,36.30
2023-04-10T14:50:04.570Z,37.00
2023-04-10T14:52:31.136Z,36.20
2023-04-10T14:54:57.706Z,37.20
2023-04-10T14:57:24.329Z,36.50
2023-04-10T14:59:50.872Z,37.90
2023-04-10T15:02:17.561Z,37.80
2023-04-10T15:04:44.195Z,38.20
2023-04-10T15:07:10.802Z,37.90
2023-04-10T15:09:37.753Z,38.70
2023-04-10T15:12:04.494Z,38.30
2023-04-10T15:14:31.055Z,38.70
2023-04-10T15:16:57.708Z,39.50
2023-04-10T15:19:24.300Z,39.40
2023-04-10T15:21:50.865Z,39.40
2023-04-10T15:24:17.431Z,39.50
2023-04-10T15:26:45.704Z,39.00
2023-04-10T15:29:13.268Z,38.20
2023-04-10T15:31:40.196Z,39.40
2023-04-10T15:34:07.267Z,39.80
2023-04-10T15:36:33.860Z,41.20
2023-04-10T15:39:02.699Z,39.30
2023-04-10T15:41:31.637Z,39.30
2023-04-10T15:43:58.361Z,39.40
2023-04-10T15:46:25.656Z,40.30
2023-04-10T15:48:52.451Z,40.40
2023-04-10T15:51:19.076Z,39.90
2023-04-10T15:53:45.650Z,39.80
2023-04-10T15:56:12.301Z,40.00
2023-04-10T15:58:38.879Z,40.20
2023-04-10T16:01:06.192Z,40.70
2023-04-10T16:03:32.865Z,41.10
2023-04-10T16:05:59.630Z,40.50
2023-04-10T16:08:27.307Z,41.00
2023-04-10T16:10:54.290Z,41.10
2023-04-10T16:13:20.917Z,41.70
2023-04-10T16:15:47.566Z,41.60
2023-04-10T16:18:14.172Z,41.30
2023-04-10T16:20:41.883Z,41.40
2023-04-10T16:23:08.531Z,41.10
2023-04-10T16:25:35.267Z,41.60
2023-04-10T16:28:02.332Z,41.20
2023-04-10T16:30:28.899Z,40.80
2023-04-10T16:32:55.511Z,40.80
2023-04-10T16:35:22.665Z,40.80
2023-04-10T16:37:49.471Z,40.80
2023-04-10T16:40:16.057Z,41.50
2023-04-10T16:42:42.797Z,41.80
2023-04-10T16:45:10.547Z,41.70
2023-04-10T16:47:37.974Z,42.60
2023-04-10T16:50:05.162Z,43.10
2023-04-10T16:52:32.204Z,43.50
2023-04-10T16:54:58.838Z,43.50
2023-04-10T16:57:25.385Z,44.10
2023-04-10T16:59:59.120Z,44.60
2023-04-10T17:02:26.682Z,45.50
2023-04-10T17:05:00.407Z,47.60
2023-04-10T17:07:27.135Z,50.50
2023-04-10T17:09:53.766Z,52.30
2023-04-10T17:12:20.418Z,51.60
2023-04-10T17:14:47.103Z,53.50
2023-04-10T17:17:13.747Z,55.20
2023-04-10T17:19:40.488Z,55.70
2023-04-10T17:22:15.874Z,59.80
2023-04-10T17:24:44.174Z,63.90
2023-04-10T17:27:11.319Z,70.60
2023-04-10T17:29:41.164Z,84.50
2023-04-10T17:32:08.792Z,90.40
2023-04-10T17:34:35.795Z,91.10
2023-04-10T17:37:02.755Z,95.40
2023-04-10T17:39:29.504Z,95.40
2023-04-10T17:41:56.773Z,96.00
2023-04-10T17:44:23.507Z,98.40
2023-04-10T17:46:50.296Z,97.90
2023-04-10T17:49:17.065Z,98.00
2023-04-10T17:51:43.717Z,99.00
2023-04-10T17:54:10.458Z,99.40
2023-04-10T17:56:37.073Z,99.80
2023-04-10T17:59:04.074Z,99.50
2023-04-10T18:01:31.028Z,99.90
2023-04-10T18:03:59.064Z,99.40
2023-04-10T18:06:26.381Z,99.90
2023-04-10T18:08:53.260Z,99.90
2023-04-10T18:11:20.146Z,99.90
2023-04-10T18:13:47.115Z,99.90
2023-04-10T18:16:13.883Z,99.90
2023-04-10T18:18:42.106Z,99.90
2023-04-10T18:21:13.175Z,99.90
2023-04-10T18:23:40.220Z,99.90
2023-04-10T18:26:07.210Z,99.90
2023-04-10T18:28:34.107Z,99.90
2023-04-10T18:31:01.098Z,99.90
2023-04-10T18:33:27.811Z,99.90
2023-04-10T18:35:59.316Z,99.90
2023-04-10T18:38:26.532Z,99.90
2023-04-10T18:40:59.418Z,99.90
2023-04-10T18:43:29.455Z,99.90
2023-04-10T18:45:56.849Z,99.90
2023-04-10T18:48:23.597Z,99.90
2023-04-10T18:50:53.673Z,99.90
2023-04-10T18:53:21.177Z,99.90
2023-04-10T18:55:54.409Z,99.90
2023-04-10T18:58:25.374Z,99.90
2023-04-10T19:00:53.465Z,99.90
2023-04-10T19:03:20.192Z,99.90
2023-04-10T19:05:47.716Z,99.90
2023-04-10T19:08:15.831Z,99.90
2023-04-10T19:10:43.036Z,99.90
2023-04-10T19:13:11.818Z,99.90
2023-04-10T19:15:43.836Z,99.90
2023-04-10T19:18:12.398Z,99.90
2023-04-10T19:20:50.485Z,99.90
2023-04-10T19:23:19.670Z,99.90
2023-04-10T19:25:46.586Z,99.90
2023-04-10T19:28:13.472Z,99.90
2023-04-10T19:30:40.319Z,99.90
2023-04-10T19:33:06.912Z,99.90
2023-04-10T19:35:33.580Z,99.90
2023-04-10T19:38:00.273Z,99.90
2023-04-10T19:40:26.933Z,99.90
2023-04-10T19:42:53.701Z,99.90
2023-04-10T19:45:22.096Z,99.90
2023-04-10T19:47:50.846Z,99.90
2023-04-10T19:50:17.479Z,99.90
2023-04-10T19:52:44.096Z,99.90
2023-04-10T19:55:11.004Z,99.90
2023-04-10T19:57:37.673Z,99.90
2023-04-10T20:00:04.699Z,99.90
2023-04-10T20:02:31.437Z,99.90
2023-04-10T20:04:58.250Z,99.90
2023-04-10T20:07:24.962Z,99.90
2023-04-10T20:09:51.554Z,99.90
2023-04-10T20:12:18.245Z,99.90
2023-04-10T20:14:44.965Z,99.90
2023-04-10T20:17:12.216Z,99.90
2023-04-10T20:19:38.799Z,99.90
2023-04-10T20:22:06.900Z,99.90
2023-04-10T20:24:33.465Z,99.90
2023-04-10T20:27:00.129Z,99.90
2023-04-10T20:29:26.665Z,99.90
2023-04-10T20:31:53.291Z,99.90
2023-04-10T20:34:19.904Z,99.90
2023-04-10T20:36:46.486Z,99.90
2023-04-10T20:39:13.048Z,99.90
2023-04-10T20:41:39.632Z,99.90
2023-04-10T20:44:07.026Z,99.90
2023-04-10T20:46:34.015Z,99.90
2023-04-10T20:49:00.758Z,99.90
2023-04-10T20:51:28.755Z,99.90
2023-04-10T20:53:55.653Z,99.90
2023-04-10T20:56:27.280Z,99.90
2023-04-10T20:59:03.223Z,99.90
2023-04-10T21:01:29.865Z,99.90
2023-04-10T21:03:58.677Z,99.90
2023-04-10T21:06:26.367Z,99.90
2023-04-10T21:08:53.139Z,99.90
2023-04-10T21:11:21.911Z,99.90
2023-04-10T21:13:49.110Z,99.90
2023-04-10T21:16:15.834Z,99.90
2023-04-10T21:18:42.518Z,99.90
2023-04-10T21:21:09.490Z,99.90
2023-04-10T21:23:36.277Z,99.90
2023-04-10T21:26:03.445Z,99.90
2023-04-10T21:28:30.074Z,99.90
2023-04-10T21:30:56.687Z,99.90
2023-04-10T21:33:23.250Z,99.90
2023-04-10T21:35:49.890Z,99.90
2023-04-10T21:38:16.485Z,99.90
2023-04-10T21:40:50.457Z,99.90
2023-04-10T21:43:17.077Z,99.90
2023-04-10T21:45:43.646Z,99.90
2023-04-10T21:48:10.369Z,99.90
2023-04-10T21:50:36.987Z,99.90
2023-04-10T21:53:03.600Z,99.90
2023-04-10T21:55:30.183Z,99.90
2023-04-10T21:57:57.244Z,99.90
2023-04-10T22:00:23.999Z,99.90
2023-04-10T22:02:52.426Z,99.90
2023-04-10T22:05:19.319Z,99.90
2023-04-10T22:07:45.900Z,99.90
2023-04-10T22:10:12.533Z,99.90
2023-04-10T22:12:39.199Z,99.90
2023-04-10T22:15:07.746Z,99.90
2023-04-10T22:17:34.531Z,99.90
2023-04-10T22:20:01.430Z,99.90
2023-04-10T22:22:28.023Z,99.90
2023-04-10T22:24:54.638Z,99.90
2023-04-10T22:27:21.303Z,99.90
2023-04-10T22:29:59.960Z,99.90
2023-04-10T22:32:29.262Z,99.90
2023-04-10T22:34:56.011Z,99.90
2023-04-10T22:37:22.574Z,99.90
2023-04-10T22:39:49.174Z,99.90
2023-04-10T22:42:15.849Z,99.90
2023-04-10T22:44:43.927Z,99.90
2023-04-10T22:47:10.580Z,99.90
2023-04-10T22:49:37.152Z,99.90
2023-04-10T22:52:03.794Z,99.90
2023-04-10T22:54:30.469Z,99.90
2023-04-10T22:56:57.735Z,99.90
2023-04-10T22:59:24.368Z,99.90
2023-04-10T23:01:51.594Z,99.90
2023-04-10T23:04:18.430Z,99.90
2023-04-10T23:06:45.109Z,99.90
2023-04-10T23:09:11.664Z,99.90
2023-04-10T23:11:38.744Z,99.90
2023-04-10T23:14:05.482Z,99.90
2023-04-10T23:16:32.138Z,99.90
2023-04-10T23:18:58.908Z,99.90
2023-04-10T23:21:25.517Z,99.90
2023-04-10T23:23:52.066Z,99.90
2023-04-10T23:26:18.745Z,99.90
2023-04-10T23:28:45.502Z,99.90
2023-04-10T23:31:12.166Z,99.90
2023-04-10T23:33:38.756Z,99.90
2023-04-10T23:36:05.828Z,99.90
2023-04-10T23:38:32.428Z,99.90
2023-04-10T23:40:59.030Z,99.90
2023-04-10T23:43:25.687Z,99.90
2023-04-10T23:45:52.228Z,99.90
2023-04-10T23:48:18.791Z,99.90
2023-04-10T23:50:45.459Z,99.90
2023-04-10T23:53:13.434Z,99.90
2023-04-10T23:55:41.421Z,99.90
2023-04-10T23:58:08.099Z,99.90
